Balen-Keiheuvel Airfield


Codes: EBKH/
Name: Balen-Keiheuvel Airfield
City: Balen
Country: Belgium
Elevation: 131 ft.
Website:
Wikipedia:

Photos at Balen-Keiheuvel Airfield


   Photos courtesy of SpottingLog. You can add your own sightings and photos by signing up for a free trial today.



G-BPCF, 25-Jul-2021
© Luc Verkuringen

OO-E90, 25-Jul-2021
© Luc Verkuringen

N117RG, 25-Jul-2021
© Luc Verkuringen

HB-RCB, 25-Jul-2021
© Luc Verkuringen

H-38, 25-Jul-2021
© Luc Verkuringen

G-FDPS, 25-Jul-2021
© Luc Verkuringen

D-ELGW, 25-Jul-2021
© Luc Verkuringen

D-0019, 25-Jul-2021
© Luc Verkuringen

D-2470, 25-Jul-2021
© Luc Verkuringen

OO-H28, 25-Jul-2021
© Luc Verkuringen

D-ESLM, 25-Jul-2021
© Luc Verkuringen

D-MTBT, 25-Jul-2021
© Luc Verkuringen


Weather at Balen-Keiheuvel Airfield


Time (UTC)DescriptionTempratureWindCloud coverageVisibilityPressureHumidity
15-Apr-2024 18:00Light Rain7°C16 mph, W94%10000m1003hPa83%
15-Apr-2024 21:00Light Rain6°C16 mph, W88%10000m1003hPa81%
16-Apr-2024 00:00Light Rain5°C16 mph, W90%10000m1004hPa84%
16-Apr-2024 03:00Light Rain4°C18 mph, SW100%115m1002hPa95%
16-Apr-2024 06:00Moderate Rain5°C13 mph, SW100%7018m999hPa96%
16-Apr-2024 09:00Light Rain8°C20 mph, NW100%10000m1002hPa86%
16-Apr-2024 12:00Light Rain10°C18 mph, NW96%10000m1005hPa81%
16-Apr-2024 15:00Light Rain9°C16 mph, NW100%10000m1007hPa80%
16-Apr-2024 18:00Light Rain7°C13 mph, NW100%10000m1009hPa84%
16-Apr-2024 21:00Light Rain6°C9 mph, NW100%10000m1011hPa89%
17-Apr-2024 00:00Light Rain5°C7 mph, W100%10000m1012hPa94%
17-Apr-2024 03:00Light Rain5°C7 mph, NW100%10000m1012hPa94%
17-Apr-2024 06:00Light Rain4°C9 mph, NW100%1986m1013hPa96%
17-Apr-2024 09:00Light Rain6°C7 mph, N100%10000m1014hPa81%
17-Apr-2024 12:00Light Rain9°C4 mph, N100%10000m1013hPa62%
17-Apr-2024 15:00Light Rain9°C7 mph, NE100%10000m1013hPa62%
17-Apr-2024 18:00Light Rain7°C7 mph, N100%10000m1013hPa79%
17-Apr-2024 21:00Light Rain5°C7 mph, N100%10000m1015hPa90%
18-Apr-2024 00:00Overcast Clouds4°C7 mph, N100%10000m1016hPa94%
18-Apr-2024 03:00Broken Clouds3°C7 mph, N68%10000m1017hPa97%
18-Apr-2024 06:00Scattered Clouds4°C4 mph, N42%10000m1019hPa91%
18-Apr-2024 09:00Clear Sky10°C7 mph, N10%10000m1021hPa61%
18-Apr-2024 12:00Light Rain12°C11 mph, N31%10000m1021hPa53%
18-Apr-2024 15:00Light Rain11°C11 mph, NW56%10000m1021hPa56%
18-Apr-2024 18:00Scattered Clouds9°C9 mph, NW47%10000m1022hPa59%
18-Apr-2024 21:00Broken Clouds4°C4 mph, NW60%10000m1023hPa78%
19-Apr-2024 00:00Broken Clouds4°C7 mph, SW80%10000m1022hPa79%
19-Apr-2024 03:00Overcast Clouds4°C11 mph, SW100%10000m1020hPa73%
19-Apr-2024 06:00Light Rain5°C16 mph, SW100%10000m1017hPa92%
19-Apr-2024 09:00Light Rain7°C16 mph, W100%10000m1015hPa95%
19-Apr-2024 12:00Light Rain9°C11 mph, NW100%10000m1016hPa92%
19-Apr-2024 15:00Light Rain11°C16 mph, NW89%10000m1017hPa66%
19-Apr-2024 18:00Light Rain8°C13 mph, NW61%10000m1018hPa75%
19-Apr-2024 21:00Broken Clouds7°C11 mph, NW51%10000m1020hPa62%
20-Apr-2024 00:00Broken Clouds6°C9 mph, NW76%10000m1021hPa66%
20-Apr-2024 03:00Overcast Clouds7°C11 mph, NW100%10000m1022hPa56%
20-Apr-2024 06:00Overcast Clouds6°C4 mph, W100%10000m1023hPa67%
20-Apr-2024 09:00Overcast Clouds8°C7 mph, NW100%10000m1025hPa64%
20-Apr-2024 12:00Overcast Clouds11°C7 mph, NW93%10000m1025hPa57%
20-Apr-2024 15:00Overcast Clouds12°C9 mph, W100%10000m1024hPa63%